createdAt,value
2023-04-25T00:00:47.843Z,79870.06
2023-04-25T00:02:29.183Z,79871.78
2023-04-25T00:04:10.940Z,79872.50
2023-04-25T00:05:52.455Z,79868.03
2023-04-25T00:07:33.764Z,79868.22
2023-04-25T00:09:15.043Z,79868.66
2023-04-25T00:10:56.366Z,79870.66
2023-04-25T00:12:37.665Z,79869.41
2023-04-25T00:14:18.962Z,79870.41
2023-04-25T00:16:00.265Z,79865.38
2023-04-25T00:17:41.607Z,79872.47
2023-04-25T00:19:22.940Z,79862.91
2023-04-25T00:21:04.230Z,79855.09
2023-04-25T00:22:45.563Z,79854.16
2023-04-25T00:24:26.872Z,79848.56
2023-04-25T00:26:08.195Z,79848.91
2023-04-25T00:27:49.472Z,79853.19
2023-04-25T00:29:30.772Z,79844.19
2023-04-25T00:31:12.055Z,79849.03
2023-04-25T00:32:53.388Z,79849.78
2023-04-25T00:34:34.682Z,79852.13
2023-04-25T00:36:16.000Z,79847.31
2023-04-25T00:37:57.288Z,79850.28
2023-04-25T00:39:38.589Z,79848.78
2023-04-25T00:41:19.857Z,79850.53
2023-04-25T00:43:01.374Z,79841.84
2023-04-25T00:44:42.715Z,79835.38
2023-04-25T00:46:24.055Z,79831.63
2023-04-25T00:48:05.490Z,79841.66
2023-04-25T00:49:46.815Z,79842.84
2023-04-25T00:51:28.082Z,79842.03
2023-04-25T00:53:09.363Z,79834.34
2023-04-25T00:54:50.701Z,79840.97
2023-04-25T00:56:31.963Z,79840.69
2023-04-25T00:58:13.239Z,79839.25
2023-04-25T00:59:54.541Z,79837.53
2023-04-25T01:01:35.832Z,79836.03
2023-04-25T01:03:17.380Z,79838.47
2023-04-25T01:04:58.882Z,79835.94
2023-04-25T01:06:40.248Z,79826.53
2023-04-25T01:08:21.585Z,79828.28
2023-04-25T01:10:02.904Z,79829.63
2023-04-25T01:11:44.219Z,79824.56
2023-04-25T01:13:25.562Z,79820.75
2023-04-25T01:15:06.877Z,79816.84
2023-04-25T01:16:48.226Z,79811.53
2023-04-25T01:18:29.578Z,79809.41
2023-04-25T01:20:10.900Z,79802.31
2023-04-25T01:21:52.224Z,79798.16
2023-04-25T01:23:33.513Z,79788.06
2023-04-25T01:25:14.800Z,79794.28
2023-04-25T01:26:56.129Z,79791.63
2023-04-25T01:28:37.440Z,79792.63
2023-04-25T01:30:18.754Z,79784.50
2023-04-25T01:32:00.083Z,79784.88
2023-04-25T01:33:41.417Z,79782.09
2023-04-25T01:35:22.705Z,79780.44
2023-04-25T01:37:03.992Z,79773.84
2023-04-25T01:38:45.268Z,79784.81
2023-04-25T01:40:26.572Z,79781.66
2023-04-25T01:42:07.864Z,79778.56
2023-04-25T01:43:49.425Z,79775.44
2023-04-25T01:45:30.933Z,79774.72
2023-04-25T01:47:12.231Z,79767.16
2023-04-25T01:48:53.499Z,79768.84
2023-04-25T01:50:34.824Z,79764.97
2023-04-25T01:52:16.146Z,79762.72
2023-04-25T01:53:58.377Z,79766.13
2023-04-25T01:55:40.601Z,79757.34
2023-04-25T01:57:21.906Z,79759.09
2023-04-25T01:59:03.294Z,79760.06
2023-04-25T02:00:44.561Z,79760.88
2023-04-25T02:02:25.974Z,79758.56
2023-04-25T02:04:07.566Z,79759.91
2023-04-25T02:05:49.027Z,79757.91
2023-04-25T02:07:30.349Z,79765.81
2023-04-25T02:09:11.651Z,79760.03
2023-04-25T02:10:52.962Z,79758.94
2023-04-25T02:12:34.258Z,79756.63
2023-04-25T02:14:15.555Z,79760.66
2023-04-25T02:15:56.912Z,79758.97
2023-04-25T02:17:38.253Z,79753.41
2023-04-25T02:19:19.555Z,79745.34
2023-04-25T02:21:00.856Z,79750.88
2023-04-25T02:22:42.137Z,79743.78
2023-04-25T02:24:23.428Z,79736.63
2023-04-25T02:26:04.772Z,79733.38
2023-04-25T02:27:46.041Z,79734.63
2023-04-25T02:29:27.340Z,79730.09
2023-04-25T02:31:08.678Z,79727.06
2023-04-25T02:32:50.023Z,79723.53
2023-04-25T02:34:31.360Z,79712.16
2023-04-25T02:36:12.646Z,79703.56
2023-04-25T02:37:53.962Z,79699.47
2023-04-25T02:39:35.277Z,79701.31
2023-04-25T02:41:16.565Z,79699.66
2023-04-25T02:42:57.819Z,79703.50
2023-04-25T02:44:39.150Z,79698.94
2023-04-25T02:46:32.291Z,79692.50
2023-04-25T02:48:20.074Z,79682.88
2023-04-25T02:50:01.428Z,79679.38
2023-04-25T02:51:42.727Z,79671.59
2023-04-25T02:53:24.049Z,79667.28
2023-04-25T02:55:05.341Z,79663.47
2023-04-25T02:56:46.611Z,79665.16
2023-04-25T02:58:27.906Z,79660.69
2023-04-25T03:00:09.209Z,79658.44
2023-04-25T03:01:50.544Z,79661.41
2023-04-25T03:03:31.817Z,79660.97
2023-04-25T03:05:13.163Z,79660.88
2023-04-25T03:06:54.431Z,79654.94
2023-04-25T03:08:35.717Z,79660.13
2023-04-25T03:10:17.091Z,79655.31
2023-04-25T03:11:58.399Z,79652.00
2023-04-25T03:13:39.668Z,79653.84
2023-04-25T03:15:20.987Z,79648.16
2023-04-25T03:17:02.366Z,79644.81
2023-04-25T03:18:43.861Z,79648.34
2023-04-25T03:20:25.187Z,79644.69
2023-04-25T03:22:06.488Z,79651.16
2023-04-25T03:23:47.852Z,79650.91
2023-04-25T03:25:29.217Z,79652.31
2023-04-25T03:27:10.526Z,79651.22
2023-04-25T03:28:51.824Z,79653.59
2023-04-25T03:30:33.093Z,79657.50
2023-04-25T03:32:14.469Z,79659.25
2023-04-25T03:33:55.860Z,79662.47
2023-04-25T03:35:37.163Z,79664.69
2023-04-25T03:37:18.465Z,79669.25
2023-04-25T03:38:59.789Z,79665.00
2023-04-25T03:40:41.149Z,79669.50
2023-04-25T03:42:22.555Z,79673.44
2023-04-25T03:44:03.851Z,79679.47
2023-04-25T03:45:45.153Z,79676.59
2023-04-25T03:47:26.473Z,79673.34
2023-04-25T03:49:07.772Z,79666.44
2023-04-25T03:50:49.087Z,79659.09
2023-04-25T03:52:30.464Z,79660.22
2023-04-25T03:54:11.719Z,79671.63
2023-04-25T03:55:52.996Z,79673.34
2023-04-25T03:57:34.280Z,79673.94
2023-04-25T03:59:15.543Z,79674.88
2023-04-25T04:00:56.841Z,79668.09
2023-04-25T04:02:38.309Z,79666.03
2023-04-25T04:04:20.056Z,79676.38
2023-04-25T04:06:01.492Z,79682.13
2023-04-25T04:07:42.760Z,79682.09
2023-04-25T04:09:24.051Z,79677.59
2023-04-25T04:11:05.346Z,79668.34
2023-04-25T04:12:46.662Z,79672.16
2023-04-25T04:14:27.958Z,79656.69
2023-04-25T04:16:09.260Z,79661.22
2023-04-25T04:17:50.667Z,79653.34
2023-04-25T04:19:31.999Z,79651.41
2023-04-25T04:21:13.264Z,79653.63
2023-04-25T04:22:54.565Z,79651.25
2023-04-25T04:24:35.874Z,79640.94
2023-04-25T04:26:17.160Z,79641.75
2023-04-25T04:27:58.463Z,79644.25
2023-04-25T04:29:39.798Z,79650.03
2023-04-25T04:31:21.099Z,79652.31
2023-04-25T04:33:02.448Z,79650.03
2023-04-25T04:34:43.847Z,79647.44
2023-04-25T04:36:25.135Z,79650.72
2023-04-25T04:38:06.402Z,79654.63
2023-04-25T04:39:47.728Z,79645.34
2023-04-25T04:41:29.022Z,79644.53
2023-04-25T04:43:10.358Z,79646.41
2023-04-25T04:44:51.724Z,79646.56
2023-04-25T04:46:33.037Z,79637.41
2023-04-25T04:48:14.312Z,79634.25
2023-04-25T04:49:55.601Z,79652.50
2023-04-25T04:51:36.910Z,79650.75
2023-04-25T04:53:18.206Z,79653.34
2023-04-25T04:54:59.516Z,79656.00
2023-04-25T04:56:40.784Z,79663.75
2023-04-25T04:58:22.079Z,79666.03
2023-04-25T05:00:03.375Z,79675.72
2023-04-25T05:01:44.809Z,79679.03
2023-04-25T05:03:26.191Z,79676.88
2023-04-25T05:05:07.595Z,79670.06
2023-04-25T05:06:49.236Z,79668.59
2023-04-25T05:08:30.659Z,79667.22
2023-04-25T05:10:11.907Z,79667.28
2023-04-25T05:11:53.172Z,79672.69
2023-04-25T05:13:34.466Z,79665.53
2023-04-25T05:15:15.760Z,79664.88
2023-04-25T05:16:57.158Z,79666.25
2023-04-25T05:18:38.574Z,79671.19
2023-04-25T05:20:19.858Z,79662.44
2023-04-25T05:22:01.139Z,79666.47
2023-04-25T05:23:42.444Z,79670.47
2023-04-25T05:25:23.718Z,79670.22
2023-04-25T05:27:05.067Z,79667.19
2023-04-25T05:28:46.372Z,79664.44
2023-04-25T05:30:27.669Z,79655.50
2023-04-25T05:32:09.046Z,79657.97
2023-04-25T05:33:50.616Z,79660.00
2023-04-25T05:35:32.208Z,79655.22
2023-04-25T05:37:13.527Z,79652.72
2023-04-25T05:38:54.820Z,79644.25
2023-04-25T05:40:36.135Z,79647.44
2023-04-25T05:42:17.426Z,79655.19
2023-04-25T05:43:58.877Z,79644.38
2023-04-25T05:45:40.442Z,79643.88
2023-04-25T05:47:21.762Z,79646.19
2023-04-25T05:49:03.071Z,79639.63
2023-04-25T05:50:44.400Z,79644.38
2023-04-25T05:52:25.712Z,79643.09
2023-04-25T05:54:07.056Z,79653.97
2023-04-25T05:55:48.357Z,79654.34
2023-04-25T05:57:29.704Z,79641.63
2023-04-25T05:59:11.010Z,79641.47
2023-04-25T06:00:52.289Z,79648.25
2023-04-25T06:02:33.727Z,79648.41
2023-04-25T06:04:15.206Z,79638.88
2023-04-25T06:05:56.930Z,79638.06
2023-04-25T06:07:38.315Z,79651.84
2023-04-25T06:09:19.602Z,79649.09
2023-04-25T06:11:00.903Z,79654.50
2023-04-25T06:12:42.175Z,79659.94
2023-04-25T06:14:27.204Z,79655.00
2023-04-25T06:16:09.613Z,79667.50
2023-04-25T06:17:50.968Z,79680.09
2023-04-25T06:19:32.271Z,79675.91
2023-04-25T06:21:13.573Z,79677.06
2023-04-25T06:22:54.990Z,79673.00
2023-04-25T06:24:36.323Z,79672.06
2023-04-25T06:26:17.599Z,79655.94
2023-04-25T06:27:58.926Z,79651.19
2023-04-25T06:29:40.236Z,79659.94
2023-04-25T06:31:21.548Z,79661.56
2023-04-25T06:33:02.922Z,79665.25
2023-04-25T06:34:44.259Z,79660.16
2023-04-25T06:36:25.551Z,79661.38
2023-04-25T06:38:06.896Z,79664.66
2023-04-25T06:39:48.229Z,79667.28
2023-04-25T06:41:29.526Z,79674.22
2023-04-25T06:43:10.826Z,79676.59
2023-04-25T06:44:52.181Z,79682.03
2023-04-25T06:46:33.498Z,79676.16
2023-04-25T06:48:14.787Z,79684.41
2023-04-25T06:49:56.126Z,79695.66
2023-04-25T06:51:37.430Z,79686.38
2023-04-25T06:53:18.744Z,79682.97
2023-04-25T06:55:00.039Z,79673.09
2023-04-25T06:56:41.309Z,79689.44
2023-04-25T06:58:22.594Z,79707.75
2023-04-25T07:00:03.903Z,79699.06
2023-04-25T07:01:45.286Z,79701.22
2023-04-25T07:03:26.726Z,79696.03
2023-04-25T07:05:08.180Z,79679.19
2023-04-25T07:06:49.472Z,79665.88
2023-04-25T07:08:30.805Z,79664.16
2023-04-25T07:10:12.126Z,79676.41
2023-04-25T07:11:53.393Z,79679.53
2023-04-25T07:13:34.646Z,79668.88
2023-04-25T07:15:15.948Z,79663.19
2023-04-25T07:16:57.347Z,79667.59
2023-04-25T07:18:38.730Z,79669.56
2023-04-25T07:20:20.043Z,79679.72
2023-04-25T07:22:01.396Z,79675.41
2023-04-25T07:23:42.665Z,79673.81
2023-04-25T07:25:23.967Z,79667.06
2023-04-25T07:27:05.279Z,79670.06
2023-04-25T07:28:46.573Z,79668.16
2023-04-25T07:30:28.080Z,79670.66
2023-04-25T07:32:09.474Z,79664.16
2023-04-25T07:33:50.822Z,79666.19
2023-04-25T07:35:32.258Z,79658.22
2023-04-25T07:37:13.558Z,79660.22
2023-04-25T07:38:54.869Z,79669.59
2023-04-25T07:40:36.167Z,79669.03
2023-04-25T07:42:17.509Z,79666.59
2023-04-25T07:43:58.819Z,79669.00
2023-04-25T07:45:40.134Z,79675.31
2023-04-25T07:47:21.514Z,79676.59
2023-04-25T07:49:02.840Z,79676.13
2023-04-25T07:50:44.156Z,79679.13
2023-04-25T07:52:25.425Z,79669.16
2023-04-25T07:54:06.760Z,79663.75
2023-04-25T07:55:48.078Z,79669.88
2023-04-25T07:57:29.423Z,79669.09
2023-04-25T07:59:10.721Z,79656.31
2023-04-25T08:00:52.005Z,79660.31
2023-04-25T08:02:33.508Z,79667.28
2023-04-25T08:04:14.974Z,79661.47
2023-04-25T08:05:56.527Z,79669.94
2023-04-25T08:07:37.881Z,79667.56
2023-04-25T08:09:19.186Z,79660.53
2023-04-25T08:11:00.547Z,79666.06
2023-04-25T08:12:42.158Z,79660.94
2023-04-25T08:14:23.493Z,79662.97
2023-04-25T08:16:04.837Z,79674.97
2023-04-25T08:17:46.190Z,79669.66
2023-04-25T08:19:27.475Z,79674.66
2023-04-25T08:21:08.808Z,79687.81
2023-04-25T08:22:50.122Z,79695.66
2023-04-25T08:24:31.417Z,79689.66
2023-04-25T08:26:12.720Z,79687.06
2023-04-25T08:27:54.037Z,79689.94
2023-04-25T08:29:35.334Z,79693.41
2023-04-25T08:31:16.645Z,79696.06
2023-04-25T08:32:57.996Z,79701.72
2023-04-25T08:34:39.386Z,79707.78
2023-04-25T08:36:31.497Z,79709.88
2023-04-25T08:38:19.620Z,79704.81
2023-04-25T08:40:00.971Z,79705.63
2023-04-25T08:41:42.251Z,79699.19
2023-04-25T08:43:23.526Z,79692.88
2023-04-25T08:45:07.095Z,79702.41
2023-04-25T08:46:48.949Z,79706.94
2023-04-25T08:48:31.518Z,79708.69
2023-04-25T08:50:12.853Z,79726.47
2023-04-25T08:51:54.301Z,79729.63
2023-04-25T08:53:36.296Z,79722.66
2023-04-25T08:55:17.785Z,79723.53
2023-04-25T08:56:59.084Z,79730.84
2023-04-25T08:58:40.379Z,79745.28
2023-04-25T09:00:21.740Z,79755.19
2023-04-25T09:02:03.129Z,79753.06
2023-04-25T09:03:44.584Z,79748.09
2023-04-25T09:05:26.242Z,79744.50
2023-04-25T09:07:07.590Z,79742.59
2023-04-25T09:08:48.858Z,79747.50
2023-04-25T09:10:33.075Z,79757.63
2023-04-25T09:12:14.424Z,79762.53
2023-04-25T09:13:55.780Z,79769.91
2023-04-25T09:15:37.074Z,79757.84
2023-04-25T09:17:18.359Z,79766.63
2023-04-25T09:18:59.670Z,79761.66
2023-04-25T09:22:26.788Z,79771.81
2023-04-25T09:24:08.103Z,79777.47
2023-04-25T09:25:49.370Z,79779.41
2023-04-25T09:27:30.696Z,79776.19
2023-04-25T09:29:12.019Z,79760.69
2023-04-25T09:30:53.329Z,79773.44
2023-04-25T09:32:34.827Z,79793.00
2023-04-25T09:34:16.163Z,79796.16
2023-04-25T09:35:57.482Z,79794.69
2023-04-25T09:37:38.853Z,79796.75
2023-04-25T09:39:20.232Z,79800.22
2023-04-25T09:41:01.538Z,79820.63
2023-04-25T09:42:42.862Z,79832.47
2023-04-25T09:44:24.197Z,79833.09
2023-04-25T09:46:05.536Z,79831.72
2023-04-25T09:47:46.875Z,79826.75
2023-04-25T09:49:28.178Z,79837.13
2023-04-25T09:51:09.517Z,79831.06
2023-04-25T09:52:50.788Z,79834.22
2023-04-25T09:54:32.069Z,79834.13
2023-04-25T09:56:13.381Z,79840.78
2023-04-25T09:57:54.708Z,79864.66
2023-04-25T09:59:36.001Z,79861.44
2023-04-25T10:01:17.401Z,79851.94
2023-04-25T10:02:58.797Z,79848.78
2023-04-25T10:04:40.345Z,79852.34
2023-04-25T10:06:21.730Z,79856.94
2023-04-25T10:08:02.992Z,79845.13
2023-04-25T10:09:44.248Z,79833.03
2023-04-25T10:11:25.654Z,79838.91
2023-04-25T10:13:06.974Z,79843.66
2023-04-25T10:14:48.340Z,79830.97
2023-04-25T10:16:29.813Z,79822.66
2023-04-25T10:18:11.327Z,79819.34
2023-04-25T10:19:52.676Z,79822.84
2023-04-25T10:21:33.964Z,79836.75
2023-04-25T10:23:15.306Z,79833.03
2023-04-25T10:24:56.640Z,79831.66
2023-04-25T10:26:37.937Z,79830.66
2023-04-25T10:28:19.306Z,79826.69
2023-04-25T10:30:00.599Z,79818.78
2023-04-25T10:31:41.977Z,79817.38
2023-04-25T10:33:23.460Z,79816.81
2023-04-25T10:35:04.756Z,79807.72
2023-04-25T10:36:46.036Z,79810.28
2023-04-25T10:38:27.309Z,79819.66
2023-04-25T10:40:08.581Z,79812.19
2023-04-25T10:41:49.887Z,79807.59
2023-04-25T10:43:31.193Z,79812.69
2023-04-25T10:45:12.489Z,79811.59
2023-04-25T10:46:53.809Z,79813.41
2023-04-25T10:48:35.201Z,79811.94
2023-04-25T10:50:16.517Z,79808.63
2023-04-25T10:51:57.886Z,79806.47
2023-04-25T10:53:39.202Z,79812.66
2023-04-25T10:55:20.860Z,79814.59
2023-04-25T10:57:02.195Z,79810.97
2023-04-25T10:58:43.484Z,79811.00
2023-04-25T11:00:25.860Z,79809.63
2023-04-25T11:02:12.189Z,79811.69
2023-04-25T11:03:53.719Z,79807.69
2023-04-25T11:05:43.769Z,79813.69
2023-04-25T11:07:32.520Z,79816.56
2023-04-25T11:09:13.850Z,79825.94
2023-04-25T11:10:55.157Z,79822.03
2023-04-25T11:12:36.450Z,79822.00
2023-04-25T11:14:17.892Z,79824.66
2023-04-25T11:16:07.388Z,79817.13
2023-04-25T11:17:54.588Z,79807.81
2023-04-25T11:19:35.949Z,79812.22
2023-04-25T11:21:17.252Z,79818.25
2023-04-25T11:22:58.544Z,79820.28
2023-04-25T11:24:39.890Z,79821.94
2023-04-25T11:26:21.211Z,79825.59
2023-04-25T11:28:02.562Z,79822.03
2023-04-25T11:29:43.899Z,79814.91
2023-04-25T11:31:25.979Z,79816.09
2023-04-25T11:33:07.740Z,79815.09
2023-04-25T11:34:49.090Z,79823.47
2023-04-25T11:36:30.423Z,79823.09
2023-04-25T11:38:11.975Z,79825.31
2023-04-25T11:39:53.651Z,79821.56
2023-04-25T11:41:35.146Z,79815.88
2023-04-25T11:43:16.797Z,79824.66
2023-04-25T11:44:58.436Z,79821.59
2023-04-25T11:46:39.814Z,79829.75
2023-04-25T11:48:22.147Z,79832.22
2023-04-25T11:50:07.706Z,79822.31
2023-04-25T11:51:49.000Z,79820.84
2023-04-25T11:53:30.290Z,79825.84
2023-04-25T11:55:11.737Z,79826.47
2023-04-25T11:56:53.069Z,79835.69
2023-04-25T11:58:34.921Z,79835.06
2023-04-25T12:00:18.661Z,79839.75
2023-04-25T12:02:00.496Z,79837.56
2023-04-25T12:03:41.885Z,79845.72
2023-04-25T12:07:09.781Z,79850.50
2023-04-25T12:08:51.477Z,79858.03
2023-04-25T12:10:32.947Z,79858.03
2023-04-25T12:12:14.270Z,79865.09
2023-04-25T12:13:55.640Z,79860.31
2023-04-25T12:15:36.947Z,79877.66
2023-04-25T12:17:18.235Z,79876.72
2023-04-25T12:18:59.787Z,79873.03
2023-04-25T12:20:41.297Z,79875.38
2023-04-25T12:22:22.812Z,79875.75
2023-04-25T12:24:04.364Z,79892.16
2023-04-25T12:25:45.896Z,79886.03
2023-04-25T12:27:27.380Z,79889.94
2023-04-25T12:29:08.932Z,79883.25
2023-04-25T12:30:50.427Z,79887.97
2023-04-25T12:32:32.065Z,79886.78
2023-04-25T12:34:13.681Z,79882.44
2023-04-25T12:35:55.082Z,79876.47
2023-04-25T12:37:36.594Z,79875.38
2023-04-25T12:39:18.146Z,79880.63
2023-04-25T12:40:59.627Z,79886.13
2023-04-25T12:42:41.081Z,79889.97
2023-04-25T12:44:22.435Z,79886.97
2023-04-25T12:46:03.698Z,79894.53
2023-04-25T12:47:45.736Z,79890.53
2023-04-25T12:49:27.280Z,79905.22
2023-04-25T12:51:08.780Z,79906.28
2023-04-25T12:52:50.478Z,79902.72
2023-04-25T12:54:32.019Z,79906.06
2023-04-25T12:56:13.463Z,79904.31
2023-04-25T12:57:54.945Z,79902.66
2023-04-25T12:59:36.244Z,79903.31
2023-04-25T13:01:17.537Z,79907.75
2023-04-25T13:02:59.189Z,79909.53
2023-04-25T13:04:40.747Z,79908.41
2023-04-25T13:06:22.066Z,79909.75
2023-04-25T13:08:03.379Z,79913.34
2023-04-25T13:09:44.701Z,79903.06
2023-04-25T13:11:25.993Z,79904.69
2023-04-25T13:13:07.909Z,79907.06
2023-04-25T13:14:49.587Z,79908.28
2023-04-25T13:16:31.153Z,79906.81
2023-04-25T13:18:12.607Z,79910.09
2023-04-25T13:19:53.898Z,79910.63
2023-04-25T13:21:35.203Z,79910.56
2023-04-25T13:23:16.761Z,79904.66
2023-04-25T13:24:58.372Z,79908.38
2023-04-25T13:26:39.916Z,79915.09
2023-04-25T13:28:21.265Z,79915.09
2023-04-25T13:30:02.565Z,79910.41
2023-04-25T13:31:43.896Z,79910.91
2023-04-25T13:33:25.492Z,79916.53
2023-04-25T13:35:09.237Z,79917.31
2023-04-25T13:36:52.081Z,79904.38
2023-04-25T13:38:33.709Z,79908.94
2023-04-25T13:40:15.023Z,79909.28
2023-04-25T13:41:56.315Z,79912.59
2023-04-25T13:43:37.718Z,79912.69
2023-04-25T13:45:19.584Z,79917.72
2023-04-25T13:47:02.574Z,79916.56
2023-04-25T13:48:44.176Z,79915.47
2023-04-25T13:50:25.624Z,79921.94
2023-04-25T13:52:07.229Z,79924.75
2023-04-25T13:53:48.970Z,79920.78
2023-04-25T13:55:30.396Z,79910.81
2023-04-25T13:57:11.731Z,79913.69
2023-04-25T13:58:53.329Z,79912.94
2023-04-25T14:00:34.980Z,79914.94
2023-04-25T14:02:16.405Z,79909.41
2023-04-25T14:03:57.982Z,79912.34
2023-04-25T14:05:39.575Z,79915.00
2023-04-25T14:07:21.103Z,79915.88
2023-04-25T14:09:02.638Z,79913.38
2023-04-25T14:10:44.093Z,79923.72
2023-04-25T14:12:25.557Z,79916.97
2023-04-25T14:14:07.142Z,79917.25
2023-04-25T14:15:48.852Z,79921.31
2023-04-25T14:17:30.368Z,79919.63
2023-04-25T14:19:11.665Z,79924.63
2023-04-25T14:20:52.969Z,79929.22
2023-04-25T14:22:34.570Z,79920.19
2023-04-25T14:24:16.162Z,79920.06
2023-04-25T14:25:57.568Z,79923.03
2023-04-25T14:27:38.912Z,79917.09
2023-04-25T14:29:20.858Z,79911.38
2023-04-25T14:31:02.587Z,79916.47
2023-04-25T14:32:44.295Z,79911.75
2023-04-25T14:34:25.697Z,79913.97
2023-04-25T14:36:07.282Z,79913.47
2023-04-25T14:37:48.712Z,79912.03
2023-04-25T14:39:29.994Z,79915.91
2023-04-25T14:41:11.343Z,79911.13
2023-04-25T14:42:52.652Z,79914.28
2023-04-25T14:44:33.925Z,79909.09
2023-04-25T14:46:15.655Z,79918.59
2023-04-25T14:47:57.312Z,79922.09
2023-04-25T14:49:38.836Z,79917.97
2023-04-25T14:51:20.419Z,79928.97
2023-04-25T14:53:01.947Z,79927.88
2023-04-25T14:54:43.491Z,79926.53
2023-04-25T14:56:25.207Z,79925.38
2023-04-25T14:58:06.612Z,79927.50
2023-04-25T14:59:47.899Z,79925.09
2023-04-25T15:01:29.233Z,79931.94
2023-04-25T15:03:11.112Z,79928.69
2023-04-25T15:04:52.920Z,79932.91
2023-04-25T15:06:34.247Z,79933.06
2023-04-25T15:08:15.557Z,79929.41
2023-04-25T15:09:56.861Z,79940.97
2023-04-25T15:11:38.845Z,79947.44
2023-04-25T15:13:20.327Z,79939.28
2023-04-25T15:15:01.924Z,79942.53
2023-04-25T15:16:43.669Z,79944.31
2023-04-25T15:18:25.245Z,79950.72
2023-04-25T15:20:06.610Z,79945.53
2023-04-25T15:21:48.150Z,79945.84
2023-04-25T15:23:29.927Z,79954.78
2023-04-25T15:25:11.376Z,79957.06
2023-04-25T15:26:52.688Z,79953.69
2023-04-25T15:28:33.970Z,79958.25
2023-04-25T15:30:15.941Z,79955.72
2023-04-25T15:31:57.687Z,79953.66
2023-04-25T15:33:39.129Z,79952.59
2023-04-25T15:35:20.541Z,79958.97
2023-04-25T15:37:01.882Z,79960.47
2023-04-25T15:38:43.897Z,79956.94
2023-04-25T15:40:25.442Z,79968.56
2023-04-25T15:42:06.977Z,79958.38
2023-04-25T15:43:49.089Z,79967.28
2023-04-25T15:45:31.021Z,79967.03
2023-04-25T15:47:12.409Z,79966.19
2023-04-25T15:48:53.747Z,79964.69
2023-04-25T15:50:36.302Z,79961.63
2023-04-25T15:52:17.571Z,79962.03
2023-04-25T15:53:59.032Z,79964.03
2023-04-25T15:55:40.592Z,79969.19
2023-04-25T15:57:22.100Z,79980.22
2023-04-25T15:59:03.620Z,79973.38
2023-04-25T16:00:44.934Z,79973.38
2023-04-25T16:02:26.485Z,79987.34
2023-04-25T16:04:08.429Z,79980.06
2023-04-25T16:05:50.073Z,79987.25
2023-04-25T16:07:31.556Z,79976.56
2023-04-25T16:09:13.234Z,79975.16
2023-04-25T16:10:54.647Z,79981.81
2023-04-25T16:12:35.935Z,79985.66
2023-04-25T16:14:17.240Z,79987.81
2023-04-25T16:15:58.588Z,79996.03
2023-04-25T16:17:39.933Z,79991.81
2023-04-25T16:19:22.091Z,79989.94
2023-04-25T16:21:03.897Z,79991.91
2023-04-25T16:22:45.341Z,79986.06
2023-04-25T16:24:26.604Z,79997.69
2023-04-25T16:26:08.177Z,79995.44
2023-04-25T16:27:49.672Z,79997.97
2023-04-25T16:29:31.010Z,80001.16
2023-04-25T16:31:12.405Z,79998.34
2023-04-25T16:32:53.792Z,80000.03
2023-04-25T16:34:35.118Z,79995.09
2023-04-25T16:36:17.146Z,79998.78
2023-04-25T16:37:58.628Z,80004.41
2023-04-25T16:39:40.119Z,80004.09
2023-04-25T16:41:21.642Z,79997.25
2023-04-25T16:43:02.982Z,79994.69
2023-04-25T16:44:44.290Z,79996.75
2023-04-25T16:46:25.702Z,79999.38
2023-04-25T16:48:07.044Z,80002.31
2023-04-25T16:49:48.411Z,80004.56
2023-04-25T16:51:29.732Z,79993.84
2023-04-25T16:53:11.009Z,80002.28
2023-04-25T16:54:52.324Z,80000.78
2023-04-25T16:56:33.633Z,79994.00
2023-04-25T16:58:15.182Z,80003.13
2023-04-25T16:59:56.737Z,80001.66
2023-04-25T17:01:38.237Z,80005.00
2023-04-25T17:03:19.861Z,80019.94
2023-04-25T17:05:01.270Z,80013.53
2023-04-25T17:06:42.830Z,80019.19
2023-04-25T17:08:24.277Z,80012.50
2023-04-25T17:10:05.546Z,80021.63
2023-04-25T17:11:46.832Z,80020.84
2023-04-25T17:13:30.963Z,80020.28
2023-04-25T17:15:12.743Z,80011.28
2023-04-25T17:16:54.758Z,80020.34
2023-04-25T17:18:36.398Z,80018.88
2023-04-25T17:20:17.882Z,80023.25
2023-04-25T17:21:59.420Z,80035.09
2023-04-25T17:23:40.969Z,80036.97
2023-04-25T17:25:22.427Z,80039.72
2023-04-25T17:27:03.710Z,80043.16
2023-04-25T17:28:45.008Z,80043.38
2023-04-25T17:30:26.297Z,80043.38
2023-04-25T17:32:07.592Z,80044.63
2023-04-25T17:33:48.939Z,80051.34
2023-04-25T17:35:30.255Z,80057.00
2023-04-25T17:37:11.586Z,80050.91
2023-04-25T17:38:53.075Z,80060.56
2023-04-25T17:40:34.448Z,80065.38
2023-04-25T17:42:15.787Z,80054.09
2023-04-25T17:43:57.261Z,80061.84
2023-04-25T17:45:39.028Z,80062.75
2023-04-25T17:47:20.359Z,80064.31
2023-04-25T17:49:01.658Z,80068.03
2023-04-25T17:50:43.008Z,80075.63
2023-04-25T17:52:24.306Z,80064.25
2023-04-25T17:54:06.116Z,80064.19
2023-04-25T17:55:47.409Z,80071.06
2023-04-25T17:57:28.745Z,80079.56
2023-04-25T17:59:10.031Z,80066.84
2023-04-25T18:00:51.365Z,80068.19
2023-04-25T18:02:32.975Z,80074.41
2023-04-25T18:04:14.573Z,80075.28
2023-04-25T18:05:55.908Z,80075.53
2023-04-25T18:07:37.846Z,80083.72
2023-04-25T18:09:19.303Z,80082.66
2023-04-25T18:11:00.607Z,80083.88
2023-04-25T18:12:42.201Z,80093.00
2023-04-25T18:14:23.692Z,80083.13
2023-04-25T18:16:05.071Z,80085.59
2023-04-25T18:17:46.520Z,80091.91
2023-04-25T18:19:27.877Z,80092.59
2023-04-25T18:21:09.724Z,80086.75
2023-04-25T18:22:51.699Z,80091.72
2023-04-25T18:24:33.437Z,80090.75
2023-04-25T18:26:14.874Z,80095.06
2023-04-25T18:27:56.368Z,80094.06
2023-04-25T18:29:37.781Z,80096.03
2023-04-25T18:31:19.097Z,80097.47
2023-04-25T18:33:00.428Z,80090.00
2023-04-25T18:34:42.071Z,80090.28
2023-04-25T18:36:23.754Z,80086.91
2023-04-25T18:38:05.295Z,80098.47
2023-04-25T18:39:46.593Z,80102.81
2023-04-25T18:41:52.192Z,80101.22
2023-04-25T18:43:29.589Z,80108.75
2023-04-25T18:45:10.892Z,80109.84
2023-04-25T18:46:52.429Z,80109.06
2023-04-25T18:48:33.934Z,80109.22
2023-04-25T18:50:15.199Z,80122.09
2023-04-25T18:51:56.747Z,80118.31
2023-04-25T18:53:38.253Z,80122.28
2023-04-25T18:55:19.760Z,80119.00
2023-04-25T18:57:01.391Z,80126.38
2023-04-25T18:58:42.712Z,80117.03
2023-04-25T19:00:24.029Z,80124.56
2023-04-25T19:02:05.684Z,80128.13
2023-04-25T19:03:47.312Z,80126.78
2023-04-25T19:05:29.464Z,80130.25
2023-04-25T19:07:11.223Z,80134.59
2023-04-25T19:08:53.062Z,80133.56
2023-04-25T19:10:34.754Z,80132.94
2023-04-25T19:12:16.086Z,80137.31
2023-04-25T19:13:57.370Z,80139.88
2023-04-25T19:15:38.672Z,80140.09
2023-04-25T19:17:20.689Z,80142.44
2023-04-25T19:19:02.184Z,80137.75
2023-04-25T19:20:43.503Z,80138.72
2023-04-25T19:22:24.790Z,80133.25
2023-04-25T19:24:06.078Z,80140.00
2023-04-25T19:25:47.388Z,80138.72
2023-04-25T19:27:28.662Z,80143.53
2023-04-25T19:29:10.707Z,80137.09
2023-04-25T19:30:52.368Z,80134.53
2023-04-25T19:32:33.684Z,80138.84
2023-04-25T19:34:15.252Z,80140.47
2023-04-25T19:35:56.760Z,80137.91
2023-04-25T19:37:38.042Z,80136.47
2023-04-25T19:39:19.383Z,80143.66
2023-04-25T19:41:00.745Z,80157.03
2023-04-25T19:42:42.143Z,80158.19
2023-04-25T19:44:23.772Z,80157.88
2023-04-25T19:46:05.406Z,80155.25
2023-04-25T19:47:46.979Z,80165.97
2023-04-25T19:49:28.474Z,80163.19
2023-04-25T19:51:09.793Z,80163.84
2023-04-25T19:52:51.322Z,80158.88
2023-04-25T19:54:33.352Z,80156.19
2023-04-25T19:56:14.864Z,80146.91